Time;durP1;ratioP1;P1;durP2;ratioP2;P2;SDS_P1;SDS_P2;PMS_P1;PMS_P2;Temp;Humidity;BMP_temperature;BMP_pressure;BME280_temperature;BME280_humidity;BME280_pressure;Samples;Min_cycle;Max_cycle;Signal;HPM_P1;HPM_P2
2022/02/01 00:01:41;;;;;;;16.42;2.97;;;;;;;;;;5032953;28;20187;-48
2022/02/01 00:04:16;;;;;;;19.90;3.40;;;;;;;;;;5033148;28;20163;-47
2022/02/01 00:09:35;;;;;;;13.40;3.65;;;;;;;;;;5032906;28;20184;-48
2022/02/01 00:12:29;;;;;;;21.27;3.38;;;;;;;;;;5032716;28;20250;-49
2022/02/01 00:17:50;;;;;;;18.55;5.05;;;;;;;;;;5032989;28;20182;-49
2022/02/01 00:36:22;;;;;;;11.87;4.00;;;;;;;;;;5052400;28;20634;-48
2022/02/01 00:41:14;;;;;;;18.97;4.40;;;;;;;;;;5051951;28;20187;-50
2022/02/01 00:43:40;;;;;;;7.28;2.67;;;;;;;;;;5052092;28;20401;-50
2022/02/01 00:46:06;;;;;;;22.88;4.18;;;;;;;;;;5052133;28;20175;-48
2022/02/01 00:48:32;;;;;;;15.43;3.40;;;;;;;;;;5052013;28;20555;-49
2022/02/01 00:50:58;;;;;;;18.92;4.50;;;;;;;;;;5051819;28;20194;-48
2022/02/01 00:53:30;;;;;;;29.73;3.63;;;;;;;;;;5051955;28;20178;-48
2022/02/01 00:55:57;;;;;;;13.98;3.85;;;;;;;;;;5052047;28;20147;-48
2022/02/01 00:58:23;;;;;;;25.88;3.65;;;;;;;;;;5051898;28;20198;-48
2022/02/01 01:00:49;;;;;;;9.25;3.15;;;;;;;;;;5032369;28;20301;-48
2022/02/01 01:03:16;;;;;;;21.52;3.65;;;;;;;;;;5031840;28;20164;-48
2022/02/01 01:05:42;;;;;;;14.38;3.15;;;;;;;;;;5031870;28;20233;-48
2022/02/01 01:08:08;;;;;;;15.82;2.88;;;;;;;;;;5031785;28;20176;-48
2022/02/01 01:10:34;;;;;;;26.13;4.23;;;;;;;;;;5030690;28;20221;-48
2022/02/01 01:15:32;;;;;;;12.68;3.13;;;;;;;;;;5031761;28;20214;-48
2022/02/01 01:45:38;;;;;;;5.20;3.22;;;;;;;;;;5029947;28;20198;-48
2022/02/01 01:53:33;;;;;;;10.32;2.75;;;;;;;;;;5031248;28;20214;-48
2022/02/01 01:55:59;;;;;;;12.20;3.20;;;;;;;;;;5030620;28;20211;-48
2022/02/01 01:58:25;;;;;;;7.75;3.08;;;;;;;;;;5031279;28;20528;-49
2022/02/01 02:01:08;;;;;;;20.05;2.72;;;;;;;;;;5030871;28;20553;-48
2022/02/01 02:03:34;;;;;;;16.40;4.10;;;;;;;;;;5031061;28;20225;-48
2022/02/01 02:06:00;;;;;;;9.63;2.83;;;;;;;;;;5031100;28;20171;-48
2022/02/01 02:08:26;;;;;;;13.25;2.95;;;;;;;;;;5030880;28;20170;-49
2022/02/01 02:11:05;;;;;;;4.80;3.08;;;;;;;;;;5030675;28;20227;-48
2022/02/01 02:16:19;;;;;;;14.85;4.45;;;;;;;;;;5031001;28;20186;-48
2022/02/01 02:18:45;;;;;;;6.05;2.33;;;;;;;;;;5030778;28;20206;-49
2022/02/01 02:21:11;;;;;;;5.90;2.27;;;;;;;;;;5032236;28;20188;-49
2022/02/01 02:23:37;;;;;;;4.53;1.90;;;;;;;;;;5034848;28;20433;-51
2022/02/01 02:26:06;;;;;;;17.47;3.00;;;;;;;;;;5034257;28;20488;-48
2022/02/01 02:28:33;;;;;;;11.90;2.65;;;;;;;;;;5034822;28;20402;-48
2022/02/01 02:31:01;;;;;;;11.50;4.70;;;;;;;;;;5041777;28;20194;-49
2022/02/01 02:33:27;;;;;;;8.40;3.50;;;;;;;;;;5044051;28;20168;-50
2022/02/01 02:36:02;;;;;;;9.07;3.45;;;;;;;;;;5043775;28;20201;-50
2022/02/01 02:38:37;;;;;;;10.52;2.88;;;;;;;;;;5044344;28;20191;-50
2022/02/01 02:41:25;;;;;;;20.02;3.88;;;;;;;;;;5044192;28;20190;-49
2022/02/01 02:46:38;;;;;;;11.48;2.78;;;;;;;;;;5042039;28;20183;-49
2022/02/01 02:49:07;;;;;;;14.63;3.42;;;;;;;;;;5043772;28;20176;-50
2022/02/01 02:51:34;;;;;;;10.77;2.78;;;;;;;;;;5044600;28;20191;-49
2022/02/01 02:54:06;;;;;;;8.35;2.65;;;;;;;;;;5044503;28;20491;-50
2022/02/01 02:56:33;;;;;;;10.13;2.67;;;;;;;;;;5043617;28;20203;-49
2022/02/01 02:58:59;;;;;;;18.77;3.67;;;;;;;;;;5043960;28;20237;-50
2022/02/01 03:01:26;;;;;;;9.98;2.83;;;;;;;;;;5043869;28;20202;-49
2022/02/01 03:03:52;;;;;;;11.90;2.65;;;;;;;;;;5044133;28;20159;-49
2022/02/01 03:06:18;;;;;;;10.10;2.43;;;;;;;;;;5043056;28;20172;-51
2022/02/01 03:08:44;;;;;;;19.70;2.70;;;;;;;;;;5043400;28;20445;-49
2022/02/01 03:11:13;;;;;;;12.07;2.40;;;;;;;;;;5044010;28;20438;-49
2022/02/01 03:13:43;;;;;;;14.15;3.10;;;;;;;;;;5043570;28;20403;-49
2022/02/01 03:21:26;;;;;;;10.50;2.45;;;;;;;;;;5042710;28;20693;-50
2022/02/01 03:23:52;;;;;;;8.90;2.83;;;;;;;;;;5042890;28;20168;-50
2022/02/01 03:26:18;;;;;;;12.33;2.70;;;;;;;;;;5042546;28;20890;-49
2022/02/01 03:28:44;;;;;;;11.17;2.77;;;;;;;;;;5042313;28;20458;-50
2022/02/01 03:31:10;;;;;;;12.03;1.93;;;;;;;;;;5042900;28;20489;-49
2022/02/01 03:33:36;;;;;;;9.00;2.40;;;;;;;;;;5042931;28;20891;-50
2022/02/01 03:36:02;;;;;;;12.70;3.30;;;;;;;;;;5043385;28;20489;-49
2022/02/01 03:38:28;;;;;;;18.90;4.23;;;;;;;;;;5043468;28;20458;-50
2022/02/01 03:40:54;;;;;;;11.93;3.40;;;;;;;;;;5042535;28;20425;-49
2022/02/01 03:43:20;;;;;;;18.13;3.67;;;;;;;;;;5043747;28;20456;-50
2022/02/01 03:45:46;;;;;;;14.00;3.45;;;;;;;;;;5043713;28;20222;-50
2022/02/01 03:48:12;;;;;;;11.40;4.00;;;;;;;;;;5045072;28;20188;-49
2022/02/01 03:50:38;;;;;;;7.30;3.03;;;;;;;;;;5043835;28;20222;-49
2022/02/01 03:53:04;;;;;;;11.20;3.10;;;;;;;;;;5043521;28;20430;-50
2022/02/01 03:55:30;;;;;;;11.82;3.60;;;;;;;;;;5045113;28;20406;-49
2022/02/01 03:57:56;;;;;;;11.93;3.30;;;;;;;;;;5044299;28;20183;-50
2022/02/01 04:00:22;;;;;;;13.90;4.30;;;;;;;;;;5044419;28;20427;-50
2022/02/01 04:02:48;;;;;;;19.00;3.78;;;;;;;;;;5044789;28;20403;-50
2022/02/01 04:05:14;;;;;;;14.73;3.30;;;;;;;;;;5043797;28;20168;-49
2022/02/01 04:07:45;;;;;;;9.87;3.17;;;;;;;;;;5043822;28;20411;-50
2022/02/01 04:10:12;;;;;;;14.43;2.85;;;;;;;;;;5045366;28;20464;-50
2022/02/01 04:12:39;;;;;;;17.80;4.15;;;;;;;;;;5044112;28;20167;-49
2022/02/01 04:15:07;;;;;;;15.10;3.17;;;;;;;;;;5044695;28;20249;-49
2022/02/01 04:17:33;;;;;;;7.43;2.97;;;;;;;;;;5043460;28;20168;-49
2022/02/01 04:19:58;;;;;;;17.23;3.87;;;;;;;;;;5042911;28;20187;-50
2022/02/01 04:22:24;;;;;;;15.67;3.10;;;;;;;;;;5053748;28;20425;-49
2022/02/01 04:24:50;;;;;;;7.80;2.50;;;;;;;;;;5063366;28;20471;-50
2022/02/01 04:27:38;;;;;;;12.67;2.70;;;;;;;;;;5063346;28;20406;-50
2022/02/01 04:30:06;;;;;;;10.85;2.50;;;;;;;;;;5061987;28;20438;-49
2022/02/01 04:32:33;;;;;;;13.60;3.95;;;;;;;;;;5063208;28;20173;-50
2022/02/01 04:34:59;;;;;;;12.77;2.90;;;;;;;;;;5063335;28;20230;-49
2022/02/01 04:37:29;;;;;;;15.00;2.53;;;;;;;;;;5063252;28;20171;-49
2022/02/01 04:39:56;;;;;;;15.35;2.88;;;;;;;;;;5062989;28;20214;-49
2022/02/01 04:42:23;;;;;;;9.85;2.35;;;;;;;;;;5063585;28;20630;-49
2022/02/01 04:44:49;;;;;;;5.72;2.05;;;;;;;;;;5063861;28;20170;-50
2022/02/01 04:47:15;;;;;;;15.80;3.13;;;;;;;;;;5064553;28;20249;-50
2022/02/01 04:49:41;;;;;;;16.37;2.70;;;;;;;;;;5064183;28;20394;-49
2022/02/01 04:52:07;;;;;;;4.18;2.05;;;;;;;;;;5056691;28;20510;-50
2022/02/01 04:54:33;;;;;;;10.63;2.55;;;;;;;;;;5044961;28;20171;-50
2022/02/01 04:56:59;;;;;;;7.17;2.27;;;;;;;;;;5044624;28;20551;-50
2022/02/01 04:59:25;;;;;;;4.03;2.47;;;;;;;;;;5043904;28;20480;-50
2022/02/01 05:01:51;;;;;;;13.53;4.40;;;;;;;;;;5043392;28;20441;-49
2022/02/01 05:04:20;;;;;;;14.20;3.40;;;;;;;;;;5045117;28;20403;-50
2022/02/01 05:06:52;;;;;;;12.10;3.00;;;;;;;;;;5044054;28;20402;-50
2022/02/01 05:09:18;;;;;;;10.57;3.15;;;;;;;;;;5044045;28;20174;-50
2022/02/01 05:11:44;;;;;;;14.13;3.22;;;;;;;;;;5044376;28;20217;-50
2022/02/01 05:14:14;;;;;;;11.98;3.45;;;;;;;;;;5044004;28;20169;-49
2022/02/01 05:19:24;;;;;;;8.13;3.30;;;;;;;;;;5043777;28;20875;-50
2022/02/01 05:21:50;;;;;;;11.27;3.20;;;;;;;;;;5054679;28;20197;-50
2022/02/01 05:24:18;;;;;;;8.60;2.90;;;;;;;;;;5063450;28;20702;-50
2022/02/01 05:26:44;;;;;;;12.38;2.85;;;;;;;;;;5062667;28;20162;-50
2022/02/01 05:29:11;;;;;;;10.73;3.27;;;;;;;;;;5063668;28;20171;-49
2022/02/01 05:31:37;;;;;;;10.05;2.97;;;;;;;;;;5062700;28;20421;-50
2022/02/01 05:34:03;;;;;;;16.70;4.28;;;;;;;;;;5063225;28;20229;-50
2022/02/01 05:36:29;;;;;;;10.25;3.53;;;;;;;;;;5063154;28;20171;-50
2022/02/01 05:38:56;;;;;;;11.90;3.73;;;;;;;;;;5063086;28;20226;-49
2022/02/01 05:41:25;;;;;;;7.55;3.53;;;;;;;;;;5062330;28;20445;-50
2022/02/01 05:43:51;;;;;;;5.20;3.20;;;;;;;;;;5062516;28;20159;-50
2022/02/01 05:46:17;;;;;;;8.30;2.55;;;;;;;;;;5063452;28;20171;-49
2022/02/01 05:48:43;;;;;;;12.27;5.57;;;;;;;;;;5064015;28;20186;-50
2022/02/01 05:51:09;;;;;;;8.63;3.10;;;;;;;;;;5059318;28;20292;-50
2022/02/01 05:53:35;;;;;;;7.35;2.75;;;;;;;;;;5043109;28;20164;-50
2022/02/01 05:56:01;;;;;;;15.40;3.60;;;;;;;;;;5045506;28;20294;-50
2022/02/01 05:58:27;;;;;;;16.50;4.17;;;;;;;;;;5062026;28;20535;-49
2022/02/01 06:00:53;;;;;;;7.75;2.70;;;;;;;;;;5061993;28;20417;-50
2022/02/01 06:03:20;;;;;;;7.43;2.60;;;;;;;;;;5062655;28;20228;-50
2022/02/01 06:05:46;;;;;;;7.72;2.53;;;;;;;;;;5062065;28;20201;-50
2022/02/01 06:08:12;;;;;;;15.18;3.97;;;;;;;;;;5063141;28;20744;-49
2022/02/01 06:10:38;;;;;;;11.77;3.03;;;;;;;;;;5062658;28;20193;-49
2022/02/01 06:13:04;;;;;;;9.43;2.95;;;;;;;;;;5062239;28;20434;-50
2022/02/01 06:15:31;;;;;;;4.53;2.80;;;;;;;;;;5062482;28;20182;-50
2022/02/01 06:17:57;;;;;;;6.88;3.00;;;;;;;;;;5063011;28;20432;-50
2022/02/01 06:20:23;;;;;;;8.10;2.70;;;;;;;;;;5062494;28;20203;-50
2022/02/01 06:22:49;;;;;;;7.43;2.73;;;;;;;;;;5049753;28;20257;-50
2022/02/01 06:25:19;;;;;;;12.40;3.75;;;;;;;;;;5042646;28;20426;-49
2022/02/01 06:27:46;;;;;;;7.95;3.63;;;;;;;;;;5034653;28;20160;-50
2022/02/01 06:30:12;;;;;;;4.67;2.60;;;;;;;;;;5033784;28;20198;-50
2022/02/01 06:32:39;;;;;;;10.57;3.20;;;;;;;;;;5042146;28;20398;-50
2022/02/01 06:35:05;;;;;;;13.27;4.28;;;;;;;;;;5043662;28;20172;-51
2022/02/01 06:37:31;;;;;;;3.10;2.80;;;;;;;;;;5042511;28;20183;-50
2022/02/01 06:39:57;;;;;;;11.13;3.15;;;;;;;;;;5042284;28;20294;-50
2022/02/01 06:42:23;;;;;;;12.87;3.20;;;;;;;;;;5041839;28;20175;-50
2022/02/01 06:44:49;;;;;;;17.43;4.20;;;;;;;;;;5042061;28;20391;-50
2022/02/01 06:47:15;;;;;;;6.20;3.70;;;;;;;;;;5041724;28;20843;-50
2022/02/01 06:49:42;;;;;;;8.10;3.07;;;;;;;;;;5041718;28;20168;-49
2022/02/01 06:52:08;;;;;;;16.23;5.10;;;;;;;;;;5040567;28;20456;-51
2022/02/01 06:54:36;;;;;;;7.50;4.22;;;;;;;;;;5041466;28;20171;-50
2022/02/01 06:57:02;;;;;;;12.55;3.90;;;;;;;;;;5039614;28;20164;-50
2022/02/01 06:59:28;;;;;;;12.35;3.95;;;;;;;;;;5040298;28;20282;-49
2022/02/01 07:01:54;;;;;;;14.43;4.00;;;;;;;;;;5039413;28;20223;-50
2022/02/01 07:04:20;;;;;;;10.97;3.70;;;;;;;;;;5040155;28;20402;-49
2022/02/01 07:06:46;;;;;;;9.27;3.60;;;;;;;;;;5039325;28;20424;-51
2022/02/01 07:09:12;;;;;;;15.90;4.13;;;;;;;;;;5041688;28;20406;-50
2022/02/01 07:11:39;;;;;;;12.43;4.57;;;;;;;;;;5042475;28;20429;-49
2022/02/01 07:14:05;;;;;;;7.47;3.67;;;;;;;;;;5042737;28;20164;-50
2022/02/01 07:16:32;;;;;;;5.65;3.58;;;;;;;;;;5042131;28;20723;-51
2022/02/01 07:18:58;;;;;;;20.27;4.15;;;;;;;;;;5041886;28;20187;-50
2022/02/01 07:21:26;;;;;;;5.07;3.13;;;;;;;;;;5042987;28;20271;-50
2022/02/01 07:23:52;;;;;;;9.10;2.95;;;;;;;;;;5042526;28;20168;-50
2022/02/01 07:26:21;;;;;;;7.82;3.47;;;;;;;;;;5058659;28;20249;-49
2022/02/01 07:28:47;;;;;;;8.57;3.65;;;;;;;;;;5062621;28;20183;-50
2022/02/01 07:31:13;;;;;;;10.73;3.50;;;;;;;;;;5062416;28;20197;-50
2022/02/01 07:33:39;;;;;;;12.48;3.55;;;;;;;;;;5062215;28;20217;-50
2022/02/01 07:36:06;;;;;;;5.15;2.70;;;;;;;;;;5061971;28;20209;-50
2022/02/01 07:38:32;;;;;;;8.95;3.40;;;;;;;;;;5062739;28;20697;-49
2022/02/01 07:40:58;;;;;;;6.75;2.90;;;;;;;;;;5063181;28;20212;-50
2022/02/01 07:43:30;;;;;;;9.13;3.00;;;;;;;;;;5063028;28;20166;-49
2022/02/01 07:45:57;;;;;;;15.20;3.60;;;;;;;;;;5063545;28;20657;-49
2022/02/01 07:48:22;;;;;;;6.75;3.38;;;;;;;;;;5063143;28;20206;-53
2022/02/01 07:50:48;;;;;;;14.60;4.17;;;;;;;;;;5062024;28;20209;-50
2022/02/01 07:53:14;;;;;;;4.20;3.30;;;;;;;;;;5059076;28;20434;-50
2022/02/01 07:55:40;;;;;;;9.83;3.80;;;;;;;;;;5043060;28;20401;-50
2022/02/01 07:58:06;;;;;;;5.05;2.35;;;;;;;;;;5043092;28;20954;-50
2022/02/01 08:00:32;;;;;;;9.83;3.60;;;;;;;;;;5042647;28;20184;-49
2022/02/01 08:02:58;;;;;;;14.18;3.70;;;;;;;;;;5042707;28;20402;-50
2022/02/01 08:05:26;;;;;;;5.43;2.90;;;;;;;;;;5043543;28;20222;-53
2022/02/01 08:07:52;;;;;;;12.05;4.20;;;;;;;;;;5043524;28;20399;-50
2022/02/01 08:10:19;;;;;;;8.65;3.60;;;;;;;;;;5043596;28;20200;-50
2022/02/01 08:18:29;;;;;;;14.57;4.03;;;;;;;;;;5042646;28;20183;-50
2022/02/01 08:20:35;;;;;;;9.60;5.50;;;;;;;;;;5057325;28;20439;-50
2022/02/01 08:23:02;;;;;;;7.00;4.55;;;;;;;;;;5063094;28;20218;-50
2022/02/01 08:25:29;;;;;;;14.43;4.53;;;;;;;;;;5045099;28;20233;-49
2022/02/01 08:27:56;;;;;;;8.55;4.40;;;;;;;;;;5040664;28;20171;-50
2022/02/01 08:30:23;;;;;;;13.55;5.05;;;;;;;;;;5044792;28;20228;-49
2022/02/01 08:32:49;;;;;;;15.50;6.80;;;;;;;;;;5059466;28;20178;-50
2022/02/01 08:35:15;;;;;;;12.18;5.00;;;;;;;;;;5061654;28;20193;-49
2022/02/01 08:37:41;;;;;;;16.25;5.90;;;;;;;;;;5062050;28;20190;-50
2022/02/01 08:40:08;;;;;;;9.40;5.15;;;;;;;;;;5062347;28;20196;-49
2022/02/01 08:42:34;;;;;;;15.05;6.07;;;;;;;;;;5062226;28;20194;-50
2022/02/01 08:45:03;;;;;;;10.02;5.45;;;;;;;;;;5061295;28;20167;-49
2022/02/01 08:47:29;;;;;;;12.00;5.82;;;;;;;;;;5060375;28;20171;-50
2022/02/01 08:49:54;;;;;;;14.73;7.30;;;;;;;;;;5059952;28;20258;-49
2022/02/01 08:52:31;;;;;;;11.03;6.13;;;;;;;;;;5060059;28;20402;-49
2022/02/01 08:55:01;;;;;;;9.23;5.15;;;;;;;;;;5057846;28;20482;-50
2022/02/01 08:57:29;;;;;;;12.02;6.25;;;;;;;;;;5058521;28;20167;-49
2022/02/01 09:00:01;;;;;;;14.50;5.80;;;;;;;;;;5059023;28;20191;-50
2022/02/01 09:02:28;;;;;;;9.98;5.20;;;;;;;;;;5057004;28;20538;-49
2022/02/01 09:04:54;;;;;;;9.45;5.70;;;;;;;;;;5055798;28;20171;-49
2022/02/01 09:07:21;;;;;;;11.57;5.88;;;;;;;;;;5054538;28;20658;-49
2022/02/01 09:09:47;;;;;;;10.23;6.03;;;;;;;;;;5054885;28;20167;-51
2022/02/01 09:12:14;;;;;;;8.30;5.30;;;;;;;;;;5055615;28;20250;-49
2022/02/01 09:14:41;;;;;;;11.32;5.85;;;;;;;;;;5055452;28;20174;-50
2022/02/01 09:17:07;;;;;;;7.25;5.97;;;;;;;;;;5055117;28;20171;-49
2022/02/01 09:19:33;;;;;;;8.65;4.55;;;;;;;;;;5054885;28;20194;-49
2022/02/01 09:22:01;;;;;;;5.70;4.43;;;;;;;;;;5054917;28;20194;-49
2022/02/01 09:24:29;;;;;;;7.60;4.93;;;;;;;;;;5042458;28;20171;-49
2022/02/01 09:26:55;;;;;;;12.90;5.35;;;;;;;;;;5034785;28;20164;-48
2022/02/01 09:29:22;;;;;;;6.47;5.65;;;;;;;;;;5034709;28;20222;-49
2022/02/01 09:31:49;;;;;;;6.57;4.68;;;;;;;;;;5034269;28;20187;-49
2022/02/01 09:34:16;;;;;;;4.60;4.13;;;;;;;;;;5035104;28;20241;-49
2022/02/01 09:36:42;;;;;;;4.95;4.45;;;;;;;;;;5035806;28;20578;-49
2022/02/01 09:39:08;;;;;;;3.97;3.58;;;;;;;;;;5034938;28;20198;-49
2022/02/01 09:41:37;;;;;;;6.45;4.55;;;;;;;;;;5035642;28;20193;-50
2022/02/01 09:44:03;;;;;;;4.32;3.70;;;;;;;;;;5034858;28;20174;-49
2022/02/01 09:46:30;;;;;;;6.55;4.18;;;;;;;;;;5034699;28;20171;-49
2022/02/01 09:48:56;;;;;;;6.35;4.57;;;;;;;;;;5034515;28;20168;-50
2022/02/01 09:51:23;;;;;;;6.30;4.82;;;;;;;;;;5033417;28;20370;-49
2022/02/01 09:53:49;;;;;;;5.90;4.35;;;;;;;;;;5033890;28;20192;-49
2022/02/01 09:56:17;;;;;;;10.27;5.07;;;;;;;;;;5035300;28;20175;-49
2022/02/01 09:58:43;;;;;;;6.00;5.00;;;;;;;;;;5035326;28;20450;-49
2022/02/01 10:01:18;;;;;;;5.38;4.72;;;;;;;;;;5035139;28;20199;-49
2022/02/01 10:03:46;;;;;;;5.07;4.55;;;;;;;;;;5033781;28;20199;-49
2022/02/01 10:06:14;;;;;;;7.72;5.13;;;;;;;;;;5034379;28;20623;-49
2022/02/01 10:08:42;;;;;;;9.63;4.63;;;;;;;;;;5033984;28;20176;-49
2022/02/01 10:11:09;;;;;;;6.80;4.25;;;;;;;;;;5034466;28;20187;-48
2022/02/01 10:13:38;;;;;;;8.65;4.40;;;;;;;;;;5034302;28;20536;-49
2022/02/01 10:16:13;;;;;;;8.02;4.88;;;;;;;;;;5033360;28;20160;-49
2022/02/01 10:18:39;;;;;;;5.90;4.22;;;;;;;;;;5034328;28;20549;-49
2022/02/01 10:21:05;;;;;;;7.60;5.83;;;;;;;;;;5048051;28;20219;-49
2022/02/01 10:23:33;;;;;;;6.00;5.40;;;;;;;;;;5046179;28;20429;-48
2022/02/01 10:26:12;;;;;;;7.20;4.80;;;;;;;;;;5032463;28;20499;-49
2022/02/01 10:28:49;;;;;;;9.57;5.45;;;;;;;;;;5034073;28;20222;-49
2022/02/01 10:31:18;;;;;;;7.22;5.05;;;;;;;;;;5036568;28;20587;-49
2022/02/01 10:36:16;;;;;;;9.95;5.13;;;;;;;;;;5034094;28;20210;-49
2022/02/01 10:38:42;;;;;;;7.22;5.95;;;;;;;;;;5033834;28;20222;-49
2022/02/01 10:41:11;;;;;;;6.23;5.50;;;;;;;;;;5034018;28;20523;-51
2022/02/01 10:43:37;;;;;;;11.93;6.13;;;;;;;;;;5038446;28;20402;-49
2022/02/01 10:46:26;;;;;;;7.37;6.07;;;;;;;;;;5038302;28;20582;-49
2022/02/01 10:48:55;;;;;;;9.70;6.07;;;;;;;;;;5038766;28;20460;-49
2022/02/01 10:51:23;;;;;;;10.10;6.97;;;;;;;;;;5038960;28;20253;-51
2022/02/01 10:53:51;;;;;;;8.65;6.10;;;;;;;;;;5038084;28;20171;-49
2022/02/01 10:56:19;;;;;;;10.07;8.25;;;;;;;;;;5036710;28;20179;-49
2022/02/01 10:58:46;;;;;;;8.52;6.70;;;;;;;;;;5037409;28;20227;-49
2022/02/01 11:01:12;;;;;;;17.55;8.30;;;;;;;;;;5036950;28;20196;-50
2022/02/01 11:03:42;;;;;;;11.07;8.45;;;;;;;;;;5036253;28;20160;-49
2022/02/01 11:06:10;;;;;;;12.57;7.60;;;;;;;;;;5035028;28;20195;-48
2022/02/01 11:08:39;;;;;;;8.60;6.60;;;;;;;;;;5036246;28;20175;-49
2022/02/01 11:11:05;;;;;;;13.32;8.35;;;;;;;;;;5035773;28;20738;-49
2022/02/01 11:13:57;;;;;;;9.03;7.20;;;;;;;;;;5035688;28;20179;-49
2022/02/01 11:16:25;;;;;;;10.27;7.75;;;;;;;;;;5035348;28;20419;-49
2022/02/01 11:19:08;;;;;;;9.38;6.93;;;;;;;;;;5035539;28;20671;-49
2022/02/01 11:21:45;;;;;;;9.45;6.97;;;;;;;;;;5035252;28;20573;-49
2022/02/01 11:24:20;;;;;;;7.45;5.82;;;;;;;;;;5035242;28;20559;-49
2022/02/01 11:26:50;;;;;;;8.73;7.82;;;;;;;;;;5035339;28;20171;-48
2022/02/01 11:31:54;;;;;;;8.07;6.38;;;;;;;;;;5035082;28;20214;-49
2022/02/01 11:34:25;;;;;;;11.73;5.85;;;;;;;;;;5034972;28;20239;-48
2022/02/01 11:37:03;;;;;;;6.68;5.35;;;;;;;;;;5035504;28;20171;-49
2022/02/01 11:39:30;;;;;;;7.05;5.25;;;;;;;;;;5036068;28;20198;-49
2022/02/01 11:41:57;;;;;;;8.90;6.38;;;;;;;;;;5035962;28;20261;-49
2022/02/01 11:44:25;;;;;;;7.70;5.35;;;;;;;;;;5034767;28;20184;-49
2022/02/01 11:47:09;;;;;;;5.68;5.10;;;;;;;;;;5033111;28;20214;-49
2022/02/01 11:49:37;;;;;;;8.65;5.93;;;;;;;;;;5050821;28;20228;-49
2022/02/01 11:52:07;;;;;;;5.15;4.65;;;;;;;;;;5054600;28;20267;-49
2022/02/01 11:54:36;;;;;;;7.35;4.32;;;;;;;;;;5053828;28;20163;-49
2022/02/01 11:57:12;;;;;;;3.58;3.25;;;;;;;;;;5053294;28;20183;-49
2022/02/01 11:59:48;;;;;;;4.32;3.60;;;;;;;;;;5054732;28;20186;-49
2022/02/01 12:02:22;;;;;;;4.35;3.95;;;;;;;;;;5055747;28;20166;-48
2022/02/01 12:04:48;;;;;;;5.65;3.72;;;;;;;;;;5042065;28;20180;-48
2022/02/01 12:07:14;;;;;;;4.70;3.87;;;;;;;;;;5035245;28;20172;-49
2022/02/01 12:09:41;;;;;;;3.70;3.40;;;;;;;;;;5034761;28;20483;-49
2022/02/01 12:12:07;;;;;;;3.58;3.28;;;;;;;;;;5036098;28;20281;-49
2022/02/01 12:14:33;;;;;;;3.35;3.15;;;;;;;;;;5035858;28;20555;-48
2022/02/01 12:16:59;;;;;;;3.80;3.20;;;;;;;;;;5036328;28;20175;-51
2022/02/01 12:19:38;;;;;;;3.73;2.83;;;;;;;;;;5035837;28;20508;-48
2022/02/01 12:22:04;;;;;;;3.30;2.80;;;;;;;;;;5036248;28;20426;-48
2022/02/01 12:24:31;;;;;;;3.28;3.05;;;;;;;;;;5036158;28;20182;-48
2022/02/01 12:26:57;;;;;;;2.85;2.65;;;;;;;;;;5038707;28;20175;-48
2022/02/01 12:29:25;;;;;;;4.93;3.20;;;;;;;;;;5052311;28;20166;-48
2022/02/01 12:31:53;;;;;;;2.92;2.72;;;;;;;;;;5052237;28;20562;-47
2022/02/01 12:34:19;;;;;;;2.72;2.50;;;;;;;;;;5052377;28;20749;-47
2022/02/01 12:36:49;;;;;;;3.28;2.92;;;;;;;;;;5052256;28;20548;-49
2022/02/01 12:39:18;;;;;;;3.78;3.10;;;;;;;;;;5052144;28;20245;-47
2022/02/01 12:41:56;;;;;;;3.10;2.80;;;;;;;;;;5052196;28;20183;-48
2022/02/01 12:46:53;;;;;;;3.40;3.05;;;;;;;;;;5052382;28;20274;-47
2022/02/01 12:49:38;;;;;;;4.10;2.88;;;;;;;;;;5051875;28;20207;-47
2022/02/01 12:52:22;;;;;;;3.00;2.65;;;;;;;;;;5051306;28;20716;-48
2022/02/01 12:54:49;;;;;;;2.78;2.42;;;;;;;;;;5052168;28;20167;-47
2022/02/01 12:57:16;;;;;;;2.85;2.65;;;;;;;;;;5051926;28;20177;-47
2022/02/01 12:59:52;;;;;;;4.88;2.90;;;;;;;;;;5051255;28;20234;-47
2022/02/01 13:02:22;;;;;;;2.55;2.40;;;;;;;;;;5051934;28;20167;-47
2022/02/01 13:04:55;;;;;;;3.00;2.70;;;;;;;;;;5051092;28;20217;-47
2022/02/01 13:07:32;;;;;;;2.97;2.78;;;;;;;;;;5052005;28;20402;-47
2022/02/01 13:13:00;;;;;;;4.00;3.07;;;;;;;;;;5051594;28;20177;-48
2022/02/01 13:20:04;;;;;;;3.35;2.75;;;;;;;;;;5048636;28;20229;-48
2022/02/01 13:21:17;;;;;;;3.80;3.30;;;;;;;;;;5051143;28;20198;-50
2022/02/01 13:23:48;;;;;;;3.97;3.07;;;;;;;;;;5051467;28;20159;-47
2022/02/01 13:26:15;;;;;;;3.00;2.80;;;;;;;;;;5051410;28;20864;-50
2022/02/01 13:28:41;;;;;;;3.80;3.50;;;;;;;;;;5051324;28;20406;-49
2022/02/01 13:31:13;;;;;;;3.20;3.00;;;;;;;;;;5051165;28;20198;-47
2022/02/01 13:33:48;;;;;;;3.35;3.05;;;;;;;;;;5051273;28;20685;-48
2022/02/01 13:36:15;;;;;;;4.00;3.33;;;;;;;;;;5051435;28;20211;-47
2022/02/01 13:38:52;;;;;;;2.50;2.30;;;;;;;;;;5051198;28;20452;-47
2022/02/01 13:41:18;;;;;;;3.47;3.17;;;;;;;;;;5051081;28;20421;-47
2022/02/01 13:43:56;;;;;;;3.25;2.95;;;;;;;;;;5051209;28;20405;-47
2022/02/01 13:46:23;;;;;;;3.00;2.80;;;;;;;;;;5050954;28;20163;-50
2022/02/01 13:49:01;;;;;;;2.93;2.73;;;;;;;;;;5046813;28;20221;-48
2022/02/01 13:51:27;;;;;;;3.37;2.73;;;;;;;;;;5031197;28;20422;-47
2022/02/01 13:54:11;;;;;;;4.20;2.60;;;;;;;;;;5031350;28;20454;-47
2022/02/01 13:56:46;;;;;;;3.07;2.83;;;;;;;;;;5031024;28;20435;-47
2022/02/01 13:59:15;;;;;;;2.70;2.50;;;;;;;;;;5032293;28;20973;-47
2022/02/01 14:01:42;;;;;;;2.97;2.77;;;;;;;;;;5050721;28;20414;-50
2022/02/01 14:04:16;;;;;;;3.88;3.50;;;;;;;;;;5051051;28;20390;-46
2022/02/01 14:06:51;;;;;;;3.87;3.57;;;;;;;;;;5049545;28;20176;-47
2022/02/01 14:11:59;;;;;;;3.83;3.50;;;;;;;;;;5050840;28;20515;-47
2022/02/01 14:23:09;;;;;;;5.80;5.23;;;;;;;;;;5035195;28;20402;-47
2022/02/01 14:33:30;;;;;;;7.93;7.03;;;;;;;;;;5034869;28;20896;-47
2022/02/01 14:36:04;;;;;;;8.10;6.70;;;;;;;;;;5034834;28;20383;-47
2022/02/01 14:44:28;;;;;;;11.10;7.30;;;;;;;;;;5034434;28;20402;-50
2022/02/01 14:46:30;;;;;;;13.57;8.87;;;;;;;;;;5034069;28;20440;-48
2022/02/01 14:48:56;;;;;;;15.70;9.80;;;;;;;;;;5034332;28;20399;-47
2022/02/01 14:51:22;;;;;;;15.40;9.70;;;;;;;;;;5048253;28;20462;-49
2022/02/01 14:53:48;;;;;;;16.53;11.43;;;;;;;;;;5054193;28;20433;-46
2022/02/01 14:56:21;;;;;;;18.87;11.57;;;;;;;;;;5054303;28;20489;-49
2022/02/01 15:07:05;;;;;;;27.53;15.87;;;;;;;;;;5054447;28;20452;-47
2022/02/01 15:14:45;;;;;;;24.50;15.30;;;;;;;;;;5054238;28;20962;-47
2022/02/01 15:17:14;;;;;;;28.53;17.53;;;;;;;;;;5053910;28;20456;-47
2022/02/01 15:19:41;;;;;;;27.13;15.17;;;;;;;;;;5053612;28;20974;-49
2022/02/01 15:22:07;;;;;;;38.93;18.00;;;;;;;;;;5052234;28;20553;-50
2022/02/01 15:24:33;;;;;;;25.33;15.60;;;;;;;;;;5053664;28;20486;-47
2022/02/01 15:26:59;;;;;;;33.23;16.30;;;;;;;;;;5053711;28;20404;-47
2022/02/01 15:29:26;;;;;;;32.33;17.00;;;;;;;;;;5052272;28;20418;-47
2022/02/01 15:31:52;;;;;;;28.70;18.20;;;;;;;;;;5053495;28;20907;-47
2022/02/01 15:34:18;;;;;;;33.53;17.60;;;;;;;;;;5053711;28;20398;-47
2022/02/01 15:36:44;;;;;;;45.90;18.50;;;;;;;;;;5053471;28;20411;-47
2022/02/01 15:58:26;;;;;;;33.43;20.33;;;;;;;;;;5053108;28;20513;-47
2022/02/01 16:00:53;;;;;;;32.97;20.03;;;;;;;;;;5052832;28;20518;-47
2022/02/01 16:03:22;;;;;;;39.13;20.10;;;;;;;;;;5053054;28;20404;-47
2022/02/01 16:05:49;;;;;;;31.53;18.97;;;;;;;;;;5052095;28;20400;-47
2022/02/01 16:08:22;;;;;;;31.67;19.07;;;;;;;;;;5053005;28;20456;-50
2022/02/01 16:10:57;;;;;;;25.47;15.67;;;;;;;;;;5052704;28;20480;-47
2022/02/01 16:13:34;;;;;;;29.43;16.70;;;;;;;;;;5052907;28;20875;-46
2022/02/01 16:16:00;;;;;;;33.20;15.37;;;;;;;;;;5053027;28;20407;-48
2022/02/01 16:18:26;;;;;;;35.00;17.03;;;;;;;;;;5052905;28;20406;-48
2022/02/01 16:20:52;;;;;;;28.63;15.50;;;;;;;;;;5041588;28;20443;-50
2022/02/01 16:23:18;;;;;;;26.03;15.83;;;;;;;;;;5032885;28;21125;-46
2022/02/01 16:25:44;;;;;;;31.30;15.90;;;;;;;;;;5032717;28;20427;-47
2022/02/01 16:28:10;;;;;;;24.70;14.27;;;;;;;;;;5032764;28;20405;-47
2022/02/01 16:30:37;;;;;;;23.40;13.47;;;;;;;;;;5032499;28;20436;-47
2022/02/01 16:33:03;;;;;;;23.93;12.90;;;;;;;;;;5032408;28;20624;-49
2022/02/01 16:35:29;;;;;;;38.70;12.73;;;;;;;;;;5032516;28;20440;-47
2022/02/01 16:37:55;;;;;;;23.17;14.10;;;;;;;;;;5032523;28;20466;-47
2022/02/01 16:40:23;;;;;;;30.83;13.93;;;;;;;;;;5031822;28;20462;-47
2022/02/01 16:42:49;;;;;;;29.93;13.50;;;;;;;;;;5032378;28;20433;-47
2022/02/01 16:45:18;;;;;;;32.77;14.60;;;;;;;;;;5032308;28;20896;-49
2022/02/01 16:47:44;;;;;;;30.07;13.93;;;;;;;;;;5032067;28;20924;-48
2022/02/01 16:50:12;;;;;;;31.60;15.10;;;;;;;;;;5041313;28;20455;-48
2022/02/01 16:52:45;;;;;;;36.47;15.40;;;;;;;;;;5049809;28;20431;-47
2022/02/01 16:55:18;;;;;;;21.37;12.03;;;;;;;;;;5052089;28;20484;-49
2022/02/01 16:57:57;;;;;;;35.40;14.93;;;;;;;;;;5051955;28;20464;-47
2022/02/01 17:00:31;;;;;;;28.67;13.23;;;;;;;;;;5051660;28;20495;-47
2022/02/01 17:03:00;;;;;;;29.77;14.67;;;;;;;;;;5051899;28;20391;-49
2022/02/01 17:05:27;;;;;;;21.80;13.00;;;;;;;;;;5051811;28;20404;-48
2022/02/01 17:07:53;;;;;;;32.87;12.03;;;;;;;;;;5051889;28;20880;-47
2022/02/01 17:10:19;;;;;;;26.10;11.80;;;;;;;;;;5051352;28;20465;-47
2022/02/01 17:13:07;;;;;;;36.63;12.93;;;;;;;;;;5051584;28;20406;-48